createdAt,value
2018-07-06T00:00:57.948Z,3.73
2018-07-06T00:03:44.477Z,3.87
2018-07-06T00:06:30.864Z,4.40
2018-07-06T00:09:17.308Z,4.70
2018-07-06T00:12:03.929Z,5.10
2018-07-06T00:14:50.456Z,4.27
2018-07-06T00:17:36.982Z,5.40
2018-07-06T00:20:23.491Z,5.70
2018-07-06T00:23:10.026Z,6.00
2018-07-06T00:25:56.511Z,6.97
2018-07-06T00:28:42.893Z,7.67
2018-07-06T00:31:29.229Z,7.30
2018-07-06T00:34:15.693Z,8.43
2018-07-06T00:37:02.252Z,8.53
2018-07-06T00:39:48.661Z,7.97
2018-07-06T00:42:35.204Z,8.67
2018-07-06T00:45:21.516Z,7.73
2018-07-06T00:48:07.891Z,8.00
2018-07-06T00:50:54.696Z,8.10
2018-07-06T00:53:41.109Z,8.40
2018-07-06T00:56:27.492Z,7.27
2018-07-06T00:59:14.096Z,8.00
2018-07-06T01:02:00.487Z,8.00
2018-07-06T01:04:46.849Z,7.10
2018-07-06T01:07:33.221Z,8.13
2018-07-06T01:10:19.562Z,7.07
2018-07-06T01:13:06.168Z,6.40
2018-07-06T01:15:52.747Z,6.77
2018-07-06T01:18:39.220Z,6.70
2018-07-06T01:21:25.849Z,6.43
2018-07-06T01:24:12.300Z,7.10
2018-07-06T01:26:58.836Z,6.53
2018-07-06T01:29:45.323Z,7.40
2018-07-06T01:32:31.688Z,7.60
2018-07-06T01:35:18.226Z,6.90
2018-07-06T01:38:04.673Z,6.37
2018-07-06T01:40:51.092Z,6.53
2018-07-06T01:43:37.408Z,6.10
2018-07-06T01:46:24.016Z,5.73
2018-07-06T01:49:10.459Z,5.50
2018-07-06T01:51:57.046Z,6.77
2018-07-06T01:54:43.529Z,5.23
2018-07-06T01:57:30.049Z,6.27
2018-07-06T02:00:16.596Z,5.77
2018-07-06T02:03:03.116Z,5.50
2018-07-06T02:05:49.425Z,5.87
2018-07-06T02:08:35.888Z,5.70
2018-07-06T02:11:22.552Z,5.67
2018-07-06T02:14:08.951Z,5.60
2018-07-06T02:16:55.421Z,5.03
2018-07-06T02:19:41.586Z,6.50
2018-07-06T02:22:27.976Z,5.30
2018-07-06T02:25:14.272Z,4.67
2018-07-06T02:28:00.852Z,4.10
2018-07-06T02:30:47.316Z,4.33
2018-07-06T02:33:33.508Z,4.40
2018-07-06T02:36:19.820Z,4.73
2018-07-06T02:39:06.341Z,4.80
2018-07-06T02:41:52.576Z,4.60
2018-07-06T02:44:39.139Z,4.53
2018-07-06T02:47:25.640Z,4.73
2018-07-06T02:50:12.112Z,4.60
2018-07-06T02:52:58.594Z,4.20
2018-07-06T02:55:44.929Z,4.50
2018-07-06T02:58:31.312Z,4.77
2018-07-06T03:01:17.961Z,4.17
2018-07-06T03:04:04.427Z,4.40
2018-07-06T03:06:50.711Z,4.93
2018-07-06T03:09:37.160Z,4.40
2018-07-06T03:12:23.466Z,4.80
2018-07-06T03:15:09.790Z,4.60
2018-07-06T03:17:56.396Z,5.00
2018-07-06T03:20:43.115Z,4.75
2018-07-06T03:23:29.525Z,4.47
2018-07-06T03:26:15.938Z,4.50
2018-07-06T03:29:02.515Z,4.77
2018-07-06T03:31:49.000Z,4.33
2018-07-06T03:34:35.348Z,4.60
2018-07-06T03:37:21.847Z,4.70
2018-07-06T03:40:08.307Z,5.03
2018-07-06T03:42:54.779Z,4.10
2018-07-06T03:45:41.151Z,4.05
2018-07-06T03:48:28.883Z,4.03
2018-07-06T03:51:15.394Z,4.10
2018-07-06T03:54:01.717Z,3.70
2018-07-06T03:56:47.949Z,4.87
2018-07-06T03:59:34.348Z,4.17
2018-07-06T04:02:20.881Z,5.07
2018-07-06T04:05:07.293Z,4.30
2018-07-06T04:07:53.684Z,3.97
2018-07-06T04:10:40.075Z,4.67
2018-07-06T04:13:26.565Z,4.30
2018-07-06T04:16:12.961Z,5.00
2018-07-06T04:19:06.560Z,4.20
2018-07-06T04:21:54.204Z,4.47
2018-07-06T04:24:40.525Z,4.03
2018-07-06T04:27:26.897Z,3.90
2018-07-06T04:30:13.272Z,3.77
2018-07-06T04:32:59.441Z,3.67
2018-07-06T04:35:45.958Z,4.80
2018-07-06T04:38:32.476Z,3.62
2018-07-06T04:41:18.880Z,4.10
2018-07-06T04:44:05.477Z,4.40
2018-07-06T04:46:51.938Z,4.45
2018-07-06T04:49:38.452Z,4.93
2018-07-06T04:52:24.840Z,5.33
2018-07-06T04:55:11.313Z,6.33
2018-07-06T04:57:57.564Z,5.10
2018-07-06T05:00:43.944Z,5.93
2018-07-06T05:03:30.248Z,5.83
2018-07-06T05:06:16.738Z,6.05
2018-07-06T05:09:03.220Z,6.60
2018-07-06T05:11:49.584Z,6.57
2018-07-06T05:14:36.156Z,6.75
2018-07-06T05:17:22.616Z,7.90
2018-07-06T05:20:09.212Z,7.42
2018-07-06T05:22:55.457Z,8.10
2018-07-06T05:25:41.712Z,7.97
2018-07-06T05:28:27.979Z,8.38
2018-07-06T05:31:14.276Z,7.63
2018-07-06T05:34:00.441Z,8.33
2018-07-06T05:36:46.852Z,8.83
2018-07-06T05:39:33.416Z,8.53
2018-07-06T05:42:19.795Z,8.57
2018-07-06T05:45:06.125Z,7.80
2018-07-06T05:47:52.517Z,11.33
2018-07-06T05:50:39.069Z,9.30
2018-07-06T05:53:25.436Z,11.03
2018-07-06T05:56:11.976Z,10.63
2018-07-06T05:58:58.418Z,11.07
2018-07-06T06:01:44.812Z,10.87
2018-07-06T06:04:31.133Z,11.87
2018-07-06T06:07:17.456Z,11.60
2018-07-06T06:09:46.260Z,12.25
2018-07-06T06:12:15.393Z,12.03
2018-07-06T06:14:44.479Z,10.50
2018-07-06T06:17:13.613Z,11.27
2018-07-06T06:19:42.776Z,9.90
2018-07-06T06:22:11.889Z,10.47
2018-07-06T06:24:41.090Z,9.73
2018-07-06T06:27:10.236Z,8.80
2018-07-06T06:29:39.619Z,10.58
2018-07-06T06:32:09.449Z,8.70
2018-07-06T06:34:38.572Z,8.78
2018-07-06T06:37:07.676Z,7.40
2018-07-06T06:39:36.777Z,8.53
2018-07-06T06:42:05.892Z,8.80
2018-07-06T06:44:34.997Z,8.17
2018-07-06T06:47:04.080Z,8.20
2018-07-06T06:49:33.204Z,7.65
2018-07-06T06:52:02.309Z,6.57
2018-07-06T06:54:31.412Z,6.60
2018-07-06T06:57:00.496Z,6.05
2018-07-06T06:59:29.588Z,6.40
2018-07-06T07:01:58.780Z,6.87
2018-07-06T07:04:27.880Z,6.37
2018-07-06T07:06:57.104Z,5.40
2018-07-06T07:09:26.212Z,5.90
2018-07-06T07:11:55.331Z,5.33
2018-07-06T07:14:24.432Z,4.87
2018-07-06T07:16:53.532Z,7.37
2018-07-06T07:19:22.645Z,6.42
2018-07-06T07:21:51.720Z,5.50
2018-07-06T07:24:20.835Z,5.40
2018-07-06T07:26:50.006Z,6.60
2018-07-06T07:29:19.088Z,6.40
2018-07-06T07:31:49.163Z,6.45
2018-07-06T07:34:18.268Z,6.70
2018-07-06T07:36:47.344Z,6.07
2018-07-06T07:39:16.449Z,7.00
2018-07-06T07:41:45.517Z,6.53
2018-07-06T07:44:14.840Z,5.80
2018-07-06T07:46:43.925Z,6.17
2018-07-06T07:49:13.008Z,6.97
2018-07-06T07:51:56.652Z,6.90
2018-07-06T07:54:33.196Z,6.05
2018-07-06T07:57:02.996Z,6.13
2018-07-06T07:59:33.148Z,7.87
2018-07-06T08:02:03.141Z,7.37
2018-07-06T08:04:32.584Z,7.55
2018-07-06T08:07:02.089Z,7.97
2018-07-06T08:09:31.160Z,7.55
2018-07-06T08:12:01.484Z,8.13
2018-07-06T08:14:30.554Z,7.80
2018-07-06T08:17:00.026Z,8.87
2018-07-06T08:19:29.150Z,8.77
2018-07-06T08:21:58.450Z,7.83
2018-07-06T08:24:27.680Z,8.30
2018-07-06T08:26:56.840Z,6.90
2018-07-06T08:29:25.951Z,7.63
2018-07-06T08:31:55.532Z,8.50
2018-07-06T08:34:35.940Z,7.93
2018-07-06T08:37:43.916Z,7.70
2018-07-06T08:40:13.421Z,7.27
2018-07-06T08:42:43.933Z,8.00
2018-07-06T08:45:13.260Z,8.60
2018-07-06T08:47:42.828Z,7.97
2018-07-06T08:50:11.916Z,7.05
2018-07-06T08:52:42.165Z,7.10
2018-07-06T08:55:11.254Z,7.25
2018-07-06T08:57:41.284Z,6.90
2018-07-06T09:00:11.168Z,6.30
2018-07-06T09:02:40.452Z,6.50
2018-07-06T09:05:10.180Z,7.43
2018-07-06T09:07:39.383Z,7.53
2018-07-06T09:10:08.477Z,7.03
2018-07-06T09:12:37.788Z,6.97
2018-07-06T09:15:07.606Z,7.30
2018-07-06T09:17:36.907Z,6.72
2018-07-06T09:20:06.251Z,7.80
2018-07-06T09:22:35.162Z,8.15
2018-07-06T09:25:05.695Z,7.28
2018-07-06T09:27:35.017Z,7.23
2018-07-06T09:30:04.306Z,7.83
2018-07-06T09:32:34.554Z,7.57
2018-07-06T09:35:04.393Z,8.30
2018-07-06T09:37:33.561Z,8.83
2018-07-06T09:40:02.648Z,8.30
2018-07-06T09:42:31.771Z,7.60
2018-07-06T09:45:00.851Z,6.93
2018-07-06T09:47:30.046Z,4.85
2018-07-06T09:49:59.145Z,4.10
2018-07-06T09:52:28.281Z,3.92
2018-07-06T09:54:57.391Z,3.45
2018-07-06T09:57:26.651Z,3.10
2018-07-06T09:59:56.368Z,3.40
2018-07-06T10:02:25.774Z,2.50
2018-07-06T10:04:54.897Z,3.50
2018-07-06T10:07:24.108Z,3.30
2018-07-06T10:09:53.356Z,3.50
2018-07-06T10:12:22.516Z,4.05
2018-07-06T10:14:51.616Z,3.42
2018-07-06T10:17:20.745Z,3.75
2018-07-06T10:19:50.498Z,3.23
2018-07-06T10:22:19.619Z,3.20
2018-07-06T10:24:48.940Z,3.60
2018-07-06T10:27:18.099Z,3.80
2018-07-06T10:29:55.283Z,4.30
2018-07-06T10:32:25.804Z,4.13
2018-07-06T10:34:55.184Z,3.23
2018-07-06T10:37:24.604Z,4.03
2018-07-06T10:39:53.982Z,4.27
2018-07-06T10:42:22.867Z,2.90
2018-07-06T10:44:51.946Z,3.93
2018-07-06T10:47:21.080Z,4.28
2018-07-06T10:49:50.180Z,4.10
2018-07-06T10:52:19.320Z,3.60
2018-07-06T10:54:48.758Z,3.83
2018-07-06T10:57:17.937Z,3.03
2018-07-06T10:59:47.059Z,2.77
2018-07-06T11:02:16.279Z,2.87
2018-07-06T11:04:45.461Z,2.73
2018-07-06T11:07:14.632Z,2.58
2018-07-06T11:09:43.775Z,2.70
2018-07-06T11:12:12.840Z,4.10
2018-07-06T11:14:41.936Z,4.30
2018-07-06T11:17:11.010Z,3.97
2018-07-06T11:19:40.100Z,3.77
2018-07-06T11:22:09.188Z,3.70
2018-07-06T11:24:38.294Z,4.37
2018-07-06T11:27:07.375Z,4.33
2018-07-06T11:29:36.500Z,3.77
2018-07-06T11:32:05.617Z,4.40
2018-07-06T11:34:34.786Z,4.58
2018-07-06T11:37:03.896Z,3.67
2018-07-06T11:39:33.001Z,3.60
2018-07-06T11:42:02.076Z,4.33
2018-07-06T11:44:31.568Z,3.87
2018-07-06T11:47:00.636Z,4.43
2018-07-06T11:49:29.792Z,4.17
2018-07-06T11:51:58.944Z,4.37
2018-07-06T11:54:28.068Z,3.80
2018-07-06T11:56:57.143Z,3.83
2018-07-06T11:59:26.252Z,3.90
2018-07-06T12:01:55.472Z,3.42
2018-07-06T12:04:24.548Z,3.73
2018-07-06T12:06:53.905Z,3.73
2018-07-06T12:09:22.993Z,3.63
2018-07-06T12:11:52.079Z,3.60
2018-07-06T12:14:21.553Z,3.50
2018-07-06T12:16:50.616Z,3.92
2018-07-06T12:19:19.823Z,4.10
2018-07-06T12:21:48.940Z,2.87
2018-07-06T12:24:18.025Z,3.20
2018-07-06T12:26:47.465Z,3.58
2018-07-06T12:29:16.958Z,2.90
2018-07-06T12:31:47.096Z,3.07
2018-07-06T12:34:16.420Z,3.40
2018-07-06T12:36:45.827Z,3.90
2018-07-06T12:39:15.066Z,3.33
2018-07-06T12:41:44.359Z,2.97
2018-07-06T12:44:13.432Z,3.35
2018-07-06T12:46:42.620Z,3.30
2018-07-06T12:49:11.695Z,3.00
2018-07-06T12:51:40.824Z,3.40
2018-07-06T12:54:09.903Z,3.47
2018-07-06T12:56:39.001Z,2.87
2018-07-06T12:59:08.088Z,3.07
2018-07-06T13:01:37.184Z,2.80
2018-07-06T13:04:06.309Z,3.30
2018-07-06T13:06:35.456Z,2.57
2018-07-06T13:09:04.962Z,3.20
2018-07-06T13:11:34.040Z,3.70
2018-07-06T13:14:03.128Z,2.77
2018-07-06T13:16:32.226Z,3.87
2018-07-06T13:19:01.302Z,3.37
2018-07-06T13:21:30.397Z,2.90
2018-07-06T13:23:59.480Z,2.63
2018-07-06T13:26:28.641Z,2.93
2018-07-06T13:28:57.724Z,2.60
2018-07-06T13:31:26.816Z,4.27
2018-07-06T13:33:55.944Z,2.47
2018-07-06T13:36:25.026Z,2.83
2018-07-06T13:38:54.099Z,2.53
2018-07-06T13:41:23.195Z,2.23
2018-07-06T13:43:52.309Z,2.83
2018-07-06T13:46:21.416Z,3.43
2018-07-06T13:48:50.504Z,2.37
2018-07-06T13:51:19.632Z,2.50
2018-07-06T13:53:48.726Z,1.90
2018-07-06T13:56:17.796Z,2.43
2018-07-06T13:58:46.896Z,2.80
2018-07-06T14:01:15.977Z,2.60
2018-07-06T14:03:45.197Z,2.80
2018-07-06T14:06:14.276Z,2.77
2018-07-06T14:08:43.375Z,1.77
2018-07-06T14:11:12.463Z,1.90
2018-07-06T14:13:41.556Z,2.07
2018-07-06T14:16:10.638Z,2.30
2018-07-06T14:18:39.733Z,2.00
2018-07-06T14:21:09.212Z,2.00
2018-07-06T14:23:38.316Z,1.77
2018-07-06T14:26:07.608Z,2.07
2018-07-06T14:28:36.721Z,1.73
2018-07-06T14:31:05.788Z,1.80
2018-07-06T14:33:34.882Z,1.97
2018-07-06T14:36:04.027Z,1.70
2018-07-06T14:38:33.120Z,2.07
2018-07-06T14:41:02.229Z,2.10
2018-07-06T14:43:31.322Z,2.30
2018-07-06T14:46:00.432Z,2.23
2018-07-06T14:48:29.606Z,2.00
2018-07-06T14:50:58.680Z,1.70
2018-07-06T14:53:27.808Z,1.90
2018-07-06T14:55:56.889Z,2.97
2018-07-06T14:58:26.004Z,1.97
2018-07-06T15:00:55.100Z,2.77
2018-07-06T15:03:24.237Z,1.47
2018-07-06T15:05:53.328Z,1.70
2018-07-06T15:08:22.433Z,1.93
2018-07-06T15:10:51.525Z,1.77
2018-07-06T15:13:20.661Z,2.20
2018-07-06T15:15:49.712Z,1.90
2018-07-06T15:18:18.844Z,1.33
2018-07-06T15:20:47.932Z,1.50
2018-07-06T15:23:17.036Z,2.53
2018-07-06T15:25:46.115Z,1.73
2018-07-06T15:28:15.184Z,1.70
2018-07-06T15:30:44.293Z,1.77
2018-07-06T15:33:13.376Z,1.53
2018-07-06T15:35:42.491Z,1.70
2018-07-06T15:38:11.565Z,1.80
2018-07-06T15:40:40.656Z,1.57
2018-07-06T15:43:09.740Z,2.07
2018-07-06T15:45:38.844Z,1.90
2018-07-06T15:48:07.911Z,1.37
2018-07-06T15:50:37.028Z,2.30
2018-07-06T15:53:06.177Z,1.63
2018-07-06T15:55:35.268Z,1.93
2018-07-06T15:58:04.338Z,1.60
2018-07-06T16:00:33.464Z,1.57
2018-07-06T16:03:02.529Z,1.50
2018-07-06T16:05:31.620Z,1.17
2018-07-06T16:08:00.688Z,1.37
2018-07-06T16:10:29.848Z,1.20
2018-07-06T16:12:58.945Z,1.83
2018-07-06T16:15:28.036Z,2.10
2018-07-06T16:17:57.112Z,1.43
2018-07-06T16:20:26.208Z,1.53
2018-07-06T16:22:55.308Z,1.17
2018-07-06T16:25:24.408Z,1.43
2018-07-06T16:27:53.567Z,1.23
2018-07-06T16:30:22.604Z,1.00
2018-07-06T16:32:51.690Z,1.30
2018-07-06T16:35:20.780Z,1.53
2018-07-06T16:37:49.859Z,1.60
2018-07-06T16:40:18.957Z,1.10
2018-07-06T16:42:48.033Z,1.17
2018-07-06T16:45:17.123Z,1.60
2018-07-06T16:47:46.253Z,1.60
2018-07-06T16:50:15.340Z,2.27
2018-07-06T16:52:44.456Z,2.00
2018-07-06T16:55:13.555Z,2.60
2018-07-06T16:57:42.621Z,1.90
2018-07-06T17:00:11.700Z,1.43
2018-07-06T17:02:40.794Z,1.80
2018-07-06T17:05:09.861Z,1.83
2018-07-06T17:07:38.956Z,1.47
2018-07-06T17:10:08.300Z,1.60
2018-07-06T17:12:37.393Z,1.50
2018-07-06T17:15:06.467Z,1.57
2018-07-06T17:17:35.559Z,1.43
2018-07-06T17:20:04.641Z,1.57
2018-07-06T17:22:33.734Z,1.30
2018-07-06T17:25:02.811Z,1.43
2018-07-06T17:27:31.920Z,1.30
2018-07-06T17:30:00.983Z,1.20
2018-07-06T17:32:30.124Z,1.87
2018-07-06T17:34:59.203Z,1.73
2018-07-06T17:37:28.375Z,1.63
2018-07-06T17:39:57.464Z,1.57
2018-07-06T17:42:26.582Z,1.33
2018-07-06T17:44:55.771Z,1.67
2018-07-06T17:47:24.899Z,1.53
2018-07-06T17:49:54.014Z,1.13
2018-07-06T17:52:23.162Z,1.80
2018-07-06T17:54:52.406Z,1.32
2018-07-06T17:57:21.591Z,1.00
2018-07-06T17:59:50.708Z,1.60
2018-07-06T18:02:19.833Z,1.33
2018-07-06T18:04:48.932Z,1.43
2018-07-06T18:07:18.100Z,0.93
2018-07-06T18:09:47.165Z,1.37
2018-07-06T18:12:16.282Z,1.50
2018-07-06T18:14:45.383Z,2.40
2018-07-06T18:17:14.569Z,1.60
2018-07-06T18:19:43.724Z,1.30
2018-07-06T18:22:12.838Z,1.33
2018-07-06T18:24:41.940Z,1.10
2018-07-06T18:27:11.041Z,1.63
2018-07-06T18:29:40.274Z,1.65
2018-07-06T18:32:09.309Z,1.50
2018-07-06T18:34:38.449Z,1.23
2018-07-06T18:37:07.540Z,1.67
2018-07-06T18:39:36.639Z,1.30
2018-07-06T18:42:05.708Z,1.23
2018-07-06T18:44:35.507Z,1.25
2018-07-06T18:47:04.678Z,1.10
2018-07-06T18:49:33.787Z,1.00
2018-07-06T18:52:02.873Z,1.50
2018-07-06T18:54:31.972Z,1.75
2018-07-06T18:57:01.062Z,1.63
2018-07-06T18:59:30.162Z,1.37
2018-07-06T19:01:59.243Z,1.30
2018-07-06T19:04:28.360Z,1.33
2018-07-06T19:06:57.532Z,1.37
2018-07-06T19:09:26.640Z,1.10
2018-07-06T19:11:56.556Z,1.63
2018-07-06T19:14:25.668Z,1.80
2018-07-06T19:16:54.736Z,1.20
2018-07-06T19:19:23.827Z,1.03
2018-07-06T19:21:53.332Z,1.52
2018-07-06T19:24:22.444Z,1.20
2018-07-06T19:26:51.524Z,1.23
2018-07-06T19:29:20.620Z,1.40
2018-07-06T19:31:49.732Z,1.50
2018-07-06T19:34:19.516Z,1.10
2018-07-06T19:36:48.590Z,1.00
2018-07-06T19:39:17.726Z,1.10
2018-07-06T19:41:46.952Z,1.23
2018-07-06T19:44:16.024Z,1.02
2018-07-06T19:46:45.112Z,1.07
2018-07-06T19:49:14.189Z,1.00
2018-07-06T19:51:43.317Z,1.40
2018-07-06T19:54:12.391Z,1.10
2018-07-06T19:56:41.484Z,1.30
2018-07-06T19:59:10.556Z,1.20
2018-07-06T20:01:39.715Z,1.10
2018-07-06T20:04:08.964Z,1.07
2018-07-06T20:06:38.149Z,1.23
2018-07-06T20:09:07.772Z,1.20
2018-07-06T20:11:36.873Z,1.75
2018-07-06T20:14:05.940Z,1.40
2018-07-06T20:16:35.057Z,1.70
2018-07-06T20:19:04.121Z,2.00
2018-07-06T20:21:33.212Z,1.03
2018-07-06T20:24:02.293Z,1.30
2018-07-06T20:26:31.400Z,1.20
2018-07-06T20:29:00.538Z,1.37
2018-07-06T20:31:29.576Z,1.20
2018-07-06T20:33:58.636Z,1.00
2018-07-06T20:36:27.743Z,1.07
2018-07-06T20:38:56.808Z,1.22
2018-07-06T20:41:25.895Z,1.13
2018-07-06T20:43:54.993Z,1.30
2018-07-06T20:46:24.089Z,1.30
2018-07-06T20:48:53.156Z,1.47
2018-07-06T20:51:22.245Z,1.42
2018-07-06T20:53:51.325Z,1.07
2018-07-06T20:56:20.408Z,1.12
2018-07-06T20:58:49.492Z,1.20
2018-07-06T21:01:18.589Z,1.30
2018-07-06T21:03:48.304Z,1.50
2018-07-06T21:06:17.476Z,1.50
2018-07-06T21:08:46.563Z,1.80
2018-07-06T21:11:15.652Z,1.17
2018-07-06T21:13:44.728Z,1.50
2018-07-06T21:16:13.903Z,1.93
2018-07-06T21:18:42.900Z,1.47
2018-07-06T21:21:12.008Z,2.03
2018-07-06T21:23:41.093Z,1.80
2018-07-06T21:26:10.168Z,1.40
2018-07-06T21:28:40.202Z,1.85
2018-07-06T21:31:09.683Z,2.20
2018-07-06T21:33:38.849Z,2.03
2018-07-06T21:36:08.077Z,1.42
2018-07-06T21:38:37.195Z,1.60
2018-07-06T21:41:06.281Z,1.50
2018-07-06T21:43:35.372Z,2.07
2018-07-06T21:46:04.889Z,2.30
2018-07-06T21:48:34.048Z,1.47
2018-07-06T21:51:03.152Z,1.80
2018-07-06T21:53:32.272Z,2.17
2018-07-06T21:56:01.368Z,2.50
2018-07-06T21:58:30.565Z,1.70
2018-07-06T22:01:00.154Z,2.27
2018-07-06T22:03:29.240Z,1.80
2018-07-06T22:05:58.332Z,1.27
2018-07-06T22:08:27.440Z,1.80
2018-07-06T22:10:56.544Z,2.60
2018-07-06T22:13:25.636Z,1.70
2018-07-06T22:15:54.708Z,2.00
2018-07-06T22:18:23.808Z,1.60
2018-07-06T22:20:52.892Z,2.27
2018-07-06T22:23:22.001Z,1.70
2018-07-06T22:25:51.280Z,1.60
2018-07-06T22:28:20.385Z,2.03
2018-07-06T22:30:49.456Z,1.87
2018-07-06T22:33:18.560Z,1.60
2018-07-06T22:35:47.632Z,2.47
2018-07-06T22:38:16.733Z,2.17
2018-07-06T22:40:45.812Z,2.20
2018-07-06T22:43:14.912Z,1.77
2018-07-06T22:45:43.993Z,2.33
2018-07-06T22:48:13.089Z,2.23
2018-07-06T22:50:42.161Z,1.73
2018-07-06T22:53:11.288Z,1.90
2018-07-06T22:55:40.356Z,1.63
2018-07-06T22:58:09.435Z,2.30
2018-07-06T23:00:38.535Z,1.80
2018-07-06T23:03:07.612Z,2.00
2018-07-06T23:05:36.746Z,2.00
2018-07-06T23:08:05.789Z,1.90
2018-07-06T23:10:34.883Z,3.27
2018-07-06T23:13:03.955Z,1.57
2018-07-06T23:15:33.066Z,2.07
2018-07-06T23:18:02.120Z,1.90
2018-07-06T23:20:31.216Z,1.50
2018-07-06T23:23:16.475Z,2.23
2018-07-06T23:25:46.716Z,2.53
2018-07-06T23:28:15.867Z,3.00
2018-07-06T23:30:50.248Z,2.17
2018-07-06T23:33:19.319Z,1.67
2018-07-06T23:35:48.448Z,1.70
2018-07-06T23:38:17.548Z,2.30
2018-07-06T23:40:46.624Z,1.80
2018-07-06T23:43:15.696Z,2.30
2018-07-06T23:45:44.804Z,2.33
2018-07-06T23:48:13.892Z,1.73
2018-07-06T23:50:42.980Z,2.13
2018-07-06T23:53:12.069Z,1.90
2018-07-06T23:55:41.164Z,2.70
2018-07-06T23:58:10.238Z,2.83
